createdAt,value
2018-05-26T00:00:36.448Z,18.08
2018-05-26T00:01:36.484Z,18.12
2018-05-26T00:02:36.520Z,17.99
2018-05-26T00:03:36.554Z,17.96
2018-05-26T00:04:36.590Z,18.05
2018-05-26T00:05:36.629Z,17.99
2018-05-26T00:06:36.662Z,17.96
2018-05-26T00:07:36.698Z,17.99
2018-05-26T00:08:36.732Z,17.93
2018-05-26T00:09:36.768Z,17.81
2018-05-26T00:10:36.804Z,17.82
2018-05-26T00:11:36.841Z,17.87
2018-05-26T00:12:36.875Z,17.84
2018-05-26T00:13:36.912Z,17.84
2018-05-26T00:14:36.946Z,17.89
2018-05-26T00:15:36.982Z,17.90
2018-05-26T00:16:37.018Z,17.78
2018-05-26T00:17:37.054Z,17.81
2018-05-26T00:18:37.090Z,17.72
2018-05-26T00:19:37.127Z,17.70
2018-05-26T00:20:37.160Z,17.58
2018-05-26T00:21:37.195Z,17.58
2018-05-26T00:22:37.235Z,17.52
2018-05-26T00:23:37.275Z,17.66
2018-05-26T00:24:37.301Z,17.49
2018-05-26T00:25:37.388Z,17.56
2018-05-26T00:26:37.374Z,17.59
2018-05-26T00:27:37.410Z,17.59
2018-05-26T00:28:37.444Z,17.58
2018-05-26T00:29:37.481Z,17.48
2018-05-26T00:30:37.516Z,17.58
2018-05-26T00:31:37.552Z,17.56
2018-05-26T00:32:37.587Z,17.55
2018-05-26T00:33:37.623Z,17.58
2018-05-26T00:34:37.658Z,17.59
2018-05-26T00:35:37.696Z,17.49
2018-05-26T00:36:37.728Z,17.68
2018-05-26T00:37:37.765Z,17.54
2018-05-26T00:38:37.802Z,17.48
2018-05-26T00:39:37.837Z,17.36
2018-05-26T00:40:37.871Z,17.34
2018-05-26T00:41:37.907Z,17.33
2018-05-26T00:42:37.943Z,17.34
2018-05-26T00:43:37.978Z,17.43
2018-05-26T00:44:38.012Z,17.38
2018-05-26T00:45:38.048Z,17.52
2018-05-26T00:46:38.085Z,17.64
2018-05-26T00:47:38.121Z,17.59
2018-05-26T00:48:38.156Z,17.66
2018-05-26T00:49:38.191Z,17.56
2018-05-26T00:50:38.227Z,17.72
2018-05-26T00:51:38.263Z,17.66
2018-05-26T00:52:38.297Z,17.72
2018-05-26T00:53:38.333Z,17.72
2018-05-26T00:54:38.367Z,17.64
2018-05-26T00:55:38.404Z,17.70
2018-05-26T00:56:38.438Z,17.72
2018-05-26T00:57:38.474Z,17.72
2018-05-26T00:58:38.511Z,17.74
2018-05-26T00:59:38.547Z,17.66
2018-05-26T01:00:38.581Z,17.74
2018-05-26T01:01:38.616Z,17.68
2018-05-26T01:02:38.652Z,17.70
2018-05-26T01:03:38.688Z,17.66
2018-05-26T01:04:38.724Z,17.66
2018-05-26T01:05:38.759Z,17.63
2018-05-26T01:06:38.796Z,17.63
2018-05-26T01:07:38.830Z,17.64
2018-05-26T01:08:38.863Z,17.64
2018-05-26T01:09:38.899Z,17.62
2018-05-26T01:10:38.947Z,17.63
2018-05-26T01:11:38.972Z,17.59
2018-05-26T01:12:39.006Z,17.55
2018-05-26T01:13:39.041Z,17.48
2018-05-26T01:14:39.077Z,17.34
2018-05-26T01:15:39.113Z,17.38
2018-05-26T01:16:39.152Z,17.34
2018-05-26T01:17:39.182Z,17.34
2018-05-26T01:18:39.221Z,17.31
2018-05-26T01:19:39.255Z,17.31
2018-05-26T01:20:39.293Z,17.34
2018-05-26T01:21:39.325Z,17.36
2018-05-26T01:22:39.361Z,17.37
2018-05-26T01:23:39.395Z,17.41
2018-05-26T01:24:39.433Z,17.37
2018-05-26T01:25:39.466Z,17.37
2018-05-26T01:26:39.502Z,17.44
2018-05-26T01:27:39.537Z,17.41
2018-05-26T01:28:39.574Z,17.36
2018-05-26T01:29:39.614Z,17.36
2018-05-26T01:30:39.645Z,17.34
2018-05-26T01:31:39.680Z,17.36
2018-05-26T01:32:39.714Z,17.23
2018-05-26T01:33:39.749Z,17.37
2018-05-26T01:34:39.786Z,17.41
2018-05-26T01:35:39.823Z,17.46
2018-05-26T01:36:39.856Z,17.41
2018-05-26T01:37:39.892Z,17.34
2018-05-26T01:38:39.931Z,17.44
2018-05-26T01:39:39.963Z,17.36
2018-05-26T01:40:39.998Z,17.40
2018-05-26T01:41:40.032Z,17.49
2018-05-26T01:42:40.070Z,17.34
2018-05-26T01:43:40.104Z,17.49
2018-05-26T01:44:40.138Z,17.36
2018-05-26T01:45:40.174Z,17.44
2018-05-26T01:46:40.210Z,17.38
2018-05-26T01:47:40.245Z,17.38
2018-05-26T01:48:40.283Z,17.36
2018-05-26T01:49:40.316Z,17.36
2018-05-26T01:50:40.351Z,17.28
2018-05-26T01:51:40.387Z,17.25
2018-05-26T01:52:40.422Z,17.21
2018-05-26T01:53:40.458Z,17.19
2018-05-26T01:54:40.494Z,17.11
2018-05-26T01:55:40.528Z,17.11
2018-05-26T01:56:40.562Z,17.07
2018-05-26T01:57:40.602Z,17.04
2018-05-26T01:58:40.638Z,16.97
2018-05-26T01:59:40.670Z,16.93
2018-05-26T02:00:40.704Z,16.96
2018-05-26T02:01:40.739Z,16.96
2018-05-26T02:02:40.774Z,17.01
2018-05-26T02:03:40.811Z,16.94
2018-05-26T02:04:40.844Z,16.96
2018-05-26T02:05:40.882Z,16.94
2018-05-26T02:06:40.917Z,16.93
2018-05-26T02:07:40.952Z,17.03
2018-05-26T02:08:40.986Z,16.96
2018-05-26T02:09:41.022Z,17.00
2018-05-26T02:10:41.057Z,17.07
2018-05-26T02:11:41.097Z,17.08
2018-05-26T02:12:41.128Z,16.93
2018-05-26T02:13:41.164Z,17.06
2018-05-26T02:14:41.199Z,17.01
2018-05-26T02:15:41.235Z,16.97
2018-05-26T02:16:41.270Z,17.00
2018-05-26T02:17:41.306Z,16.93
2018-05-26T02:18:41.338Z,17.03
2018-05-26T02:19:41.375Z,16.89
2018-05-26T02:20:41.409Z,17.00
2018-05-26T02:21:41.446Z,16.93
2018-05-26T02:22:41.481Z,17.00
2018-05-26T02:23:41.516Z,17.06
2018-05-26T02:24:41.556Z,17.04
2018-05-26T02:25:41.587Z,16.97
2018-05-26T02:26:41.621Z,16.94
2018-05-26T02:27:41.657Z,16.94
2018-05-26T02:28:41.691Z,16.93
2018-05-26T02:29:41.728Z,16.83
2018-05-26T02:30:41.763Z,16.93
2018-05-26T02:31:41.798Z,16.79
2018-05-26T02:32:41.833Z,16.89
2018-05-26T02:33:41.867Z,16.79
2018-05-26T02:34:41.904Z,16.76
2018-05-26T02:35:41.943Z,16.68
2018-05-26T02:36:41.974Z,16.64
2018-05-26T02:37:42.008Z,16.58
2018-05-26T02:38:42.044Z,16.46
2018-05-26T02:39:42.079Z,16.38
2018-05-26T02:40:42.116Z,16.38
2018-05-26T02:41:42.151Z,16.34
2018-05-26T02:42:42.185Z,16.31
2018-05-26T02:43:42.220Z,16.27
2018-05-26T02:44:42.255Z,16.27
2018-05-26T02:45:42.290Z,16.25
2018-05-26T02:46:42.326Z,16.21
2018-05-26T02:47:42.360Z,16.09
2018-05-26T02:48:42.397Z,16.02
2018-05-26T02:49:42.430Z,15.86
2018-05-26T02:50:42.465Z,15.83
2018-05-26T02:51:42.525Z,15.87
2018-05-26T02:52:42.538Z,15.93
2018-05-26T02:53:42.570Z,15.90
2018-05-26T02:54:42.604Z,15.87
2018-05-26T02:55:42.642Z,15.75
2018-05-26T02:56:42.674Z,15.82
2018-05-26T02:57:42.709Z,15.78
2018-05-26T02:58:42.759Z,15.83
2018-05-26T02:59:42.780Z,15.76
2018-05-26T03:00:42.815Z,15.90
2018-05-26T03:01:42.856Z,15.86
2018-05-26T03:02:42.885Z,15.84
2018-05-26T03:03:42.919Z,15.90
2018-05-26T03:04:42.954Z,15.86
2018-05-26T03:05:42.990Z,15.90
2018-05-26T03:06:43.024Z,15.82
2018-05-26T03:07:43.058Z,15.75
2018-05-26T03:08:43.093Z,15.69
2018-05-26T03:09:43.128Z,15.67
2018-05-26T03:10:43.165Z,15.65
2018-05-26T03:11:43.197Z,15.60
2018-05-26T03:12:43.236Z,15.67
2018-05-26T03:13:43.272Z,15.65
2018-05-26T03:14:43.308Z,15.65
2018-05-26T03:15:43.339Z,15.60
2018-05-26T03:16:43.382Z,15.46
2018-05-26T03:17:43.407Z,15.56
2018-05-26T03:18:43.442Z,15.62
2018-05-26T03:19:43.485Z,15.71
2018-05-26T03:20:43.511Z,15.69
2018-05-26T03:21:43.545Z,15.75
2018-05-26T03:22:43.580Z,15.86
2018-05-26T03:23:43.616Z,15.82
2018-05-26T03:24:43.660Z,15.89
2018-05-26T03:25:43.684Z,15.96
2018-05-26T03:26:43.719Z,15.89
2018-05-26T03:27:43.753Z,15.97
2018-05-26T03:28:43.787Z,16.00
2018-05-26T03:29:43.821Z,15.87
2018-05-26T03:30:43.860Z,15.90
2018-05-26T03:31:43.893Z,15.80
2018-05-26T03:32:43.925Z,15.65
2018-05-26T03:33:43.961Z,15.59
2018-05-26T03:34:43.996Z,15.59
2018-05-26T03:35:44.033Z,15.50
2018-05-26T03:36:44.064Z,15.51
2018-05-26T03:37:44.099Z,15.36
2018-05-26T03:38:44.134Z,15.46
2018-05-26T03:39:44.168Z,15.54
2018-05-26T03:40:44.203Z,15.49
2018-05-26T03:41:44.236Z,15.53
2018-05-26T03:42:44.273Z,15.59
2018-05-26T03:43:44.306Z,15.56
2018-05-26T03:44:44.340Z,15.60
2018-05-26T03:45:44.375Z,15.82
2018-05-26T03:46:44.409Z,15.76
2018-05-26T03:47:44.444Z,15.87
2018-05-26T03:48:44.477Z,15.94
2018-05-26T03:49:44.514Z,15.92
2018-05-26T03:50:44.547Z,15.97
2018-05-26T03:51:44.584Z,15.96
2018-05-26T03:52:44.613Z,15.90
2018-05-26T03:53:44.650Z,15.93
2018-05-26T03:54:44.684Z,15.86
2018-05-26T03:55:44.720Z,15.90
2018-05-26T03:56:44.753Z,15.80
2018-05-26T03:57:44.787Z,15.87
2018-05-26T03:58:44.824Z,15.86
2018-05-26T03:59:44.857Z,15.94
2018-05-26T04:00:44.892Z,16.00
2018-05-26T04:01:44.930Z,16.07
2018-05-26T04:02:44.960Z,16.14
2018-05-26T04:03:44.994Z,16.21
2018-05-26T04:04:45.030Z,16.17
2018-05-26T04:05:45.097Z,16.12
2018-05-26T04:06:45.098Z,16.24
2018-05-26T04:07:45.132Z,16.24
2018-05-26T04:08:45.166Z,16.24
2018-05-26T04:09:45.201Z,16.34
2018-05-26T04:10:45.235Z,16.28
2018-05-26T04:11:45.271Z,16.28
2018-05-26T04:12:45.304Z,16.24
2018-05-26T04:13:45.338Z,16.30
2018-05-26T04:14:45.374Z,16.38
2018-05-26T04:15:45.409Z,16.42
2018-05-26T04:16:45.442Z,16.42
2018-05-26T04:17:45.476Z,16.38
2018-05-26T04:18:45.512Z,16.30
2018-05-26T04:19:45.548Z,16.33
2018-05-26T04:20:45.581Z,16.41
2018-05-26T04:21:45.614Z,16.39
2018-05-26T04:22:45.652Z,16.42
2018-05-26T04:23:45.686Z,16.34
2018-05-26T04:24:45.719Z,16.45
2018-05-26T04:25:45.755Z,16.31
2018-05-26T04:26:45.789Z,16.38
2018-05-26T04:27:45.823Z,16.17
2018-05-26T04:28:45.859Z,16.30
2018-05-26T04:29:45.893Z,16.20
2018-05-26T04:30:45.927Z,16.24
2018-05-26T04:31:45.963Z,16.31
2018-05-26T04:32:45.998Z,16.30
2018-05-26T04:33:46.032Z,16.33
2018-05-26T04:34:46.066Z,16.25
2018-05-26T04:35:46.102Z,16.21
2018-05-26T04:36:46.136Z,16.25
2018-05-26T04:37:46.171Z,16.28
2018-05-26T04:38:46.210Z,16.23
2018-05-26T04:39:46.241Z,16.30
2018-05-26T04:40:46.276Z,16.41
2018-05-26T04:41:46.310Z,16.38
2018-05-26T04:42:46.346Z,16.42
2018-05-26T04:43:46.381Z,16.46
2018-05-26T04:44:46.415Z,16.53
2018-05-26T04:45:46.451Z,16.56
2018-05-26T04:46:46.484Z,16.70
2018-05-26T04:47:46.519Z,16.61
2018-05-26T04:48:46.555Z,16.64
2018-05-26T04:49:46.595Z,16.76
2018-05-26T04:50:46.625Z,16.73
2018-05-26T04:51:46.661Z,16.76
2018-05-26T04:52:46.695Z,16.75
2018-05-26T04:53:46.730Z,16.79
2018-05-26T04:54:46.767Z,16.76
2018-05-26T04:55:46.800Z,16.81
2018-05-26T04:56:46.835Z,16.83
2018-05-26T04:57:46.873Z,16.81
2018-05-26T04:58:46.904Z,16.83
2018-05-26T04:59:46.941Z,16.85
2018-05-26T05:00:46.975Z,16.85
2018-05-26T05:01:47.017Z,16.82
2018-05-26T05:02:47.046Z,16.71
2018-05-26T05:03:47.089Z,16.70
2018-05-26T05:04:47.116Z,16.75
2018-05-26T05:05:47.151Z,16.67
2018-05-26T05:06:47.187Z,16.71
2018-05-26T05:07:47.222Z,16.75
2018-05-26T05:08:47.256Z,16.83
2018-05-26T05:09:47.291Z,16.93
2018-05-26T05:10:47.328Z,16.96
2018-05-26T05:11:47.363Z,16.91
2018-05-26T05:12:47.399Z,16.82
2018-05-26T05:13:47.432Z,16.93
2018-05-26T05:14:47.467Z,16.96
2018-05-26T05:15:47.503Z,16.98
2018-05-26T05:16:47.538Z,16.98
2018-05-26T05:17:47.573Z,16.97
2018-05-26T05:18:47.609Z,17.11
2018-05-26T05:19:47.644Z,17.11
2018-05-26T05:20:47.678Z,17.08
2018-05-26T05:21:47.716Z,17.22
2018-05-26T05:22:47.749Z,17.23
2018-05-26T05:23:47.788Z,17.33
2018-05-26T05:24:47.833Z,17.37
2018-05-26T05:25:47.854Z,17.48
2018-05-26T05:26:47.944Z,17.48
2018-05-26T05:27:47.927Z,17.56
2018-05-26T05:28:47.961Z,17.58
2018-05-26T05:29:47.997Z,17.72
2018-05-26T05:30:48.033Z,17.70
2018-05-26T05:31:48.068Z,17.82
2018-05-26T05:32:48.104Z,17.93
2018-05-26T05:33:48.139Z,18.00
2018-05-26T05:34:48.176Z,18.03
2018-05-26T05:35:48.212Z,18.11
2018-05-26T05:36:48.247Z,18.10
2018-05-26T05:37:48.282Z,18.21
2018-05-26T05:38:48.355Z,18.26
2018-05-26T05:39:48.353Z,18.33
2018-05-26T05:40:48.389Z,18.35
2018-05-26T05:41:48.427Z,18.41
2018-05-26T05:42:48.462Z,18.41
2018-05-26T05:43:48.498Z,18.45
2018-05-26T05:44:48.537Z,18.57
2018-05-26T05:45:48.570Z,18.48
2018-05-26T05:46:48.605Z,18.54
2018-05-26T05:47:48.643Z,18.58
2018-05-26T05:48:48.678Z,18.58
2018-05-26T05:49:48.715Z,18.73
2018-05-26T05:50:48.751Z,18.76
2018-05-26T05:51:48.788Z,18.85
2018-05-26T05:52:48.823Z,18.87
2018-05-26T05:53:48.860Z,18.90
2018-05-26T05:54:48.896Z,19.07
2018-05-26T05:55:48.933Z,19.04
2018-05-26T05:56:48.969Z,19.07
2018-05-26T05:57:49.006Z,19.11
2018-05-26T05:58:49.043Z,19.18
2018-05-26T05:59:49.079Z,19.23
2018-05-26T06:00:49.115Z,19.26
2018-05-26T06:01:49.150Z,19.33
2018-05-26T06:02:49.189Z,19.32
2018-05-26T06:03:49.225Z,19.43
2018-05-26T06:04:49.261Z,19.47
2018-05-26T06:05:49.298Z,19.50
2018-05-26T06:06:49.336Z,19.43
2018-05-26T06:07:49.372Z,19.59
2018-05-26T06:08:49.412Z,19.66
2018-05-26T06:09:49.445Z,19.77
2018-05-26T06:10:49.482Z,19.74
2018-05-26T06:11:49.521Z,19.83
2018-05-26T06:12:49.559Z,19.84
2018-05-26T06:13:49.593Z,19.92
2018-05-26T06:14:49.638Z,19.99
2018-05-26T06:15:49.666Z,19.99
2018-05-26T06:16:49.703Z,20.02
2018-05-26T06:17:49.740Z,20.06
2018-05-26T06:18:49.778Z,20.16
2018-05-26T06:19:49.815Z,20.18
2018-05-26T06:20:49.850Z,20.14
2018-05-26T06:21:49.889Z,20.23
2018-05-26T06:22:49.926Z,20.33
2018-05-26T06:23:49.964Z,20.38
2018-05-26T06:24:50.000Z,20.47
2018-05-26T06:25:50.037Z,20.61
2018-05-26T06:26:50.075Z,20.74
2018-05-26T06:27:50.112Z,20.77
2018-05-26T06:28:50.149Z,20.77
2018-05-26T06:29:50.187Z,20.80
2018-05-26T06:30:50.225Z,20.95
2018-05-26T06:31:50.268Z,20.94
2018-05-26T06:32:50.300Z,21.04
2018-05-26T06:33:50.337Z,20.98
2018-05-26T06:34:50.375Z,21.03
2018-05-26T06:35:50.460Z,21.04
2018-05-26T06:36:50.450Z,21.09
2018-05-26T06:37:50.488Z,21.22
2018-05-26T06:38:50.525Z,21.27
2018-05-26T06:39:50.564Z,21.29
2018-05-26T06:40:50.601Z,21.32
2018-05-26T06:41:50.640Z,21.37
2018-05-26T06:42:50.677Z,21.37
2018-05-26T06:43:50.715Z,21.50
2018-05-26T06:44:50.752Z,21.59
2018-05-26T06:45:50.792Z,21.68
2018-05-26T06:46:50.829Z,21.82
2018-05-26T06:47:50.870Z,21.71
2018-05-26T06:48:50.905Z,21.77
2018-05-26T06:49:50.944Z,21.82
2018-05-26T06:50:50.982Z,21.88
2018-05-26T06:51:51.021Z,21.99
2018-05-26T06:52:51.058Z,22.03
2018-05-26T06:53:51.098Z,22.15
2018-05-26T06:54:51.142Z,22.09
2018-05-26T06:55:51.175Z,22.00
2018-05-26T06:56:51.213Z,22.06
2018-05-26T06:57:51.251Z,22.20
2018-05-26T06:58:51.290Z,22.24
2018-05-26T06:59:51.333Z,22.28
2018-05-26T07:00:51.369Z,22.20
2018-05-26T07:01:51.407Z,22.37
2018-05-26T07:02:51.446Z,22.31
2018-05-26T07:03:51.484Z,22.43
2018-05-26T07:04:51.523Z,22.39
2018-05-26T07:05:51.562Z,22.42
2018-05-26T07:06:51.601Z,22.39
2018-05-26T07:07:51.641Z,22.33
2018-05-26T07:08:51.678Z,22.45
2018-05-26T07:09:51.720Z,22.43
2018-05-26T07:10:51.757Z,22.37
2018-05-26T07:11:51.798Z,22.46
2018-05-26T07:12:51.835Z,22.40
2018-05-26T07:13:51.876Z,22.45
2018-05-26T07:14:51.914Z,22.67
2018-05-26T07:15:51.954Z,22.75
2018-05-26T07:16:51.991Z,22.83
2018-05-26T07:17:52.034Z,22.72
2018-05-26T07:18:52.070Z,22.61
2018-05-26T07:19:52.115Z,22.67
2018-05-26T07:20:52.148Z,22.54
2018-05-26T07:21:52.187Z,22.67
2018-05-26T07:22:52.227Z,22.68
2018-05-26T07:23:52.266Z,22.58
2018-05-26T07:24:52.305Z,22.62
2018-05-26T07:25:52.343Z,22.68
2018-05-26T07:26:52.383Z,22.68
2018-05-26T07:27:52.436Z,22.83
2018-05-26T07:28:52.461Z,22.82
2018-05-26T07:29:52.499Z,22.88
2018-05-26T07:30:52.540Z,22.94
2018-05-26T07:31:52.580Z,22.98
2018-05-26T07:32:52.617Z,22.79
2018-05-26T07:33:52.660Z,22.94
2018-05-26T07:34:52.696Z,23.01
2018-05-26T07:35:52.735Z,23.13
2018-05-26T07:36:52.775Z,23.16
2018-05-26T07:37:52.815Z,23.39
2018-05-26T07:38:52.853Z,23.47
2018-05-26T07:39:52.893Z,23.66
2018-05-26T07:40:52.933Z,23.73
2018-05-26T07:41:52.972Z,23.68
2018-05-26T07:42:53.012Z,23.78
2018-05-26T07:43:53.051Z,23.93
2018-05-26T07:44:53.092Z,23.87
2018-05-26T07:45:53.130Z,23.93
2018-05-26T07:46:53.174Z,23.88
2018-05-26T07:47:53.209Z,23.83
2018-05-26T07:48:53.251Z,23.84
2018-05-26T07:49:53.288Z,23.95
2018-05-26T07:50:53.330Z,23.87
2018-05-26T07:51:53.422Z,23.84
2018-05-26T07:52:53.409Z,23.95
2018-05-26T07:53:53.448Z,23.98
2018-05-26T07:54:53.492Z,24.21
2018-05-26T07:55:53.528Z,24.18
2018-05-26T07:56:53.570Z,24.12
2018-05-26T07:57:53.610Z,23.93
2018-05-26T07:58:53.648Z,23.80
2018-05-26T07:59:53.688Z,23.91
2018-05-26T08:00:53.759Z,24.10
2018-05-26T08:01:53.768Z,24.09
2018-05-26T08:02:53.808Z,24.15
2018-05-26T08:03:53.849Z,24.28
2018-05-26T08:04:53.889Z,24.42
2018-05-26T08:05:53.929Z,24.32
2018-05-26T08:06:53.969Z,24.58
2018-05-26T08:07:54.010Z,24.77
2018-05-26T08:08:54.048Z,24.95
2018-05-26T08:09:54.089Z,24.76
2018-05-26T08:10:54.135Z,24.55
2018-05-26T08:11:54.171Z,24.73
2018-05-26T08:12:54.215Z,24.88
2018-05-26T08:13:54.254Z,24.93
2018-05-26T08:14:54.292Z,24.73
2018-05-26T08:15:54.335Z,24.99
2018-05-26T08:16:54.373Z,25.28
2018-05-26T08:17:54.413Z,25.45
2018-05-26T08:18:54.461Z,25.28
2018-05-26T08:19:54.495Z,25.36
2018-05-26T08:20:54.536Z,25.39
2018-05-26T08:21:54.583Z,25.40
2018-05-26T08:22:54.619Z,25.47
2018-05-26T08:23:54.658Z,25.52
2018-05-26T08:24:54.699Z,25.62
2018-05-26T08:25:54.740Z,25.45
2018-05-26T08:26:54.783Z,25.55
2018-05-26T08:27:54.823Z,25.72
2018-05-26T08:28:54.864Z,25.77
2018-05-26T08:29:54.904Z,25.88
2018-05-26T08:30:54.949Z,26.01
2018-05-26T08:31:54.986Z,26.02
2018-05-26T08:32:55.027Z,26.07
2018-05-26T08:33:55.070Z,26.02
2018-05-26T08:34:55.110Z,25.95
2018-05-26T08:35:55.152Z,25.99
2018-05-26T08:36:55.191Z,25.90
2018-05-26T08:37:55.234Z,25.80
2018-05-26T08:38:55.275Z,25.92
2018-05-26T08:39:55.317Z,26.13
2018-05-26T08:40:55.362Z,26.23
2018-05-26T08:41:55.400Z,26.36
2018-05-26T08:42:55.441Z,26.13
2018-05-26T08:43:55.503Z,26.30
2018-05-26T08:44:55.523Z,26.33
2018-05-26T08:45:55.565Z,26.36
2018-05-26T08:46:55.607Z,26.45
2018-05-26T08:47:55.650Z,26.37
2018-05-26T08:48:55.690Z,26.28
2018-05-26T08:49:55.736Z,26.40
2018-05-26T08:50:55.774Z,26.37
2018-05-26T08:51:55.815Z,26.32
2018-05-26T08:52:56.059Z,26.37
2018-05-26T08:53:55.917Z,26.37
2018-05-26T08:54:56.032Z,26.57
2018-05-26T08:55:55.987Z,26.39
2018-05-26T08:56:56.043Z,26.35
2018-05-26T08:57:56.286Z,26.33
2018-05-26T08:58:56.329Z,26.48
2018-05-26T08:59:56.150Z,26.39
2018-05-26T09:00:56.191Z,26.40
2018-05-26T09:01:56.233Z,26.39
2018-05-26T09:02:56.275Z,26.48
2018-05-26T09:03:56.316Z,26.44
2018-05-26T09:04:56.381Z,26.62
2018-05-26T09:06:56.443Z,26.58
2018-05-26T09:07:56.488Z,26.62
2018-05-26T09:08:56.527Z,26.69
2018-05-26T09:09:56.567Z,26.69
2018-05-26T09:10:56.612Z,26.91
2018-05-26T09:11:56.654Z,26.89
2018-05-26T09:12:56.694Z,26.85
2018-05-26T09:13:56.735Z,26.88
2018-05-26T09:14:56.793Z,26.89
2018-05-26T09:15:56.825Z,26.88
2018-05-26T09:16:56.864Z,26.95
2018-05-26T09:17:56.904Z,27.04
2018-05-26T09:18:56.948Z,27.13
2018-05-26T09:19:56.991Z,27.40
2018-05-26T09:20:57.032Z,27.40
2018-05-26T09:21:57.109Z,27.29
2018-05-26T09:22:57.117Z,27.46
2018-05-26T09:23:57.158Z,27.69
2018-05-26T09:24:57.202Z,27.70
2018-05-26T09:25:57.245Z,27.82
2018-05-26T09:26:57.291Z,27.93
2018-05-26T09:27:57.330Z,27.94
2018-05-26T09:28:57.371Z,28.04
2018-05-26T09:29:57.414Z,28.11
2018-05-26T09:30:57.457Z,27.97
2018-05-26T09:31:57.500Z,28.25
2018-05-26T09:33:00.168Z,28.33
2018-05-26T09:33:57.584Z,28.54
2018-05-26T09:34:57.626Z,28.71
2018-05-26T09:35:57.670Z,28.80
2018-05-26T09:36:58.039Z,28.59
2018-05-26T09:37:57.756Z,28.43
2018-05-26T09:38:57.799Z,28.48
2018-05-26T09:39:57.842Z,28.37
2018-05-26T09:40:57.883Z,28.59
2018-05-26T09:41:58.148Z,28.73
2018-05-26T09:42:57.971Z,28.70
2018-05-26T09:43:58.014Z,28.88
2018-05-26T09:44:58.060Z,28.96
2018-05-26T09:45:58.101Z,28.80
2018-05-26T09:46:59.155Z,28.86
2018-05-26T09:47:58.187Z,28.77
2018-05-26T09:48:58.230Z,28.93
2018-05-26T09:49:58.274Z,29.00
2018-05-26T09:50:58.319Z,29.16
2018-05-26T09:51:58.361Z,29.27
2018-05-26T09:52:58.404Z,29.23
2018-05-26T09:53:58.446Z,29.26
2018-05-26T09:54:58.490Z,29.43
2018-05-26T09:55:58.582Z,29.48
2018-05-26T09:56:58.578Z,29.45
2018-05-26T09:57:58.624Z,29.53
2018-05-26T09:58:58.666Z,29.63
2018-05-26T09:59:58.709Z,29.60
2018-05-26T10:00:58.752Z,29.63
2018-05-26T10:01:58.797Z,29.43
2018-05-26T10:02:58.841Z,29.51
2018-05-26T10:03:58.885Z,29.46
2018-05-26T10:04:58.927Z,29.58
2018-05-26T10:05:58.972Z,29.52
2018-05-26T10:06:59.017Z,29.45
2018-05-26T10:07:59.061Z,29.14
2018-05-26T10:08:59.104Z,29.28
2018-05-26T10:09:59.148Z,29.55
2018-05-26T10:10:59.191Z,29.74
2018-05-26T10:11:59.236Z,29.76
2018-05-26T10:12:59.280Z,29.76
2018-05-26T10:13:59.324Z,29.55
2018-05-26T10:14:59.373Z,29.24
2018-05-26T10:15:59.412Z,29.34
2018-05-26T10:16:59.456Z,29.49
2018-05-26T10:17:59.501Z,29.63
2018-05-26T10:18:59.545Z,29.51
2018-05-26T10:19:59.613Z,29.60
2018-05-26T10:20:59.636Z,29.43
2018-05-26T10:21:59.678Z,29.42
2018-05-26T10:22:59.722Z,29.52
2018-05-26T10:23:59.767Z,29.92
2018-05-26T10:24:59.811Z,29.89
2018-05-26T10:25:59.855Z,29.98
2018-05-26T10:26:59.900Z,30.26
2018-05-26T10:27:59.943Z,30.72
2018-05-26T10:28:59.988Z,31.35
2018-05-26T10:30:00.088Z,31.31
2018-05-26T10:31:00.079Z,31.75
2018-05-26T10:32:00.124Z,31.54
2018-05-26T10:33:00.171Z,31.89
2018-05-26T10:34:00.217Z,32.47
2018-05-26T10:35:00.267Z,32.48
2018-05-26T10:36:42.873Z,33.09
2018-05-26T10:37:42.917Z,32.94
2018-05-26T10:38:42.967Z,32.97
2018-05-26T10:39:43.015Z,33.37
2018-05-26T10:40:43.066Z,34.15
2018-05-26T10:41:43.113Z,33.82
2018-05-26T10:42:43.164Z,34.46
2018-05-26T10:43:43.213Z,35.07
2018-05-26T10:44:43.265Z,34.32
2018-05-26T10:45:43.315Z,33.79
2018-05-26T10:46:43.365Z,34.40
2018-05-26T10:47:43.416Z,34.54
2018-05-26T10:48:43.466Z,34.72
2018-05-26T10:49:43.519Z,35.19
2018-05-26T10:50:43.572Z,35.81
2018-05-26T10:51:43.623Z,35.70
2018-05-26T10:52:43.675Z,35.94
2018-05-26T10:53:43.729Z,36.22
2018-05-26T10:54:43.783Z,36.29
2018-05-26T10:55:43.833Z,36.91
2018-05-26T10:56:43.886Z,37.94
2018-05-26T10:57:43.958Z,38.25
2018-05-26T10:58:44.440Z,38.31
2018-05-26T10:59:44.045Z,38.12
2018-05-26T11:00:44.100Z,38.63
2018-05-26T11:01:44.152Z,38.88
2018-05-26T11:02:44.208Z,38.91
2018-05-26T11:03:44.259Z,37.15
2018-05-26T11:04:44.315Z,38.07
2018-05-26T11:05:44.368Z,37.88
2018-05-26T11:06:44.424Z,38.07
2018-05-26T11:07:44.476Z,38.41
2018-05-26T11:08:44.531Z,38.11
2018-05-26T11:09:44.586Z,37.78
2018-05-26T11:10:44.642Z,37.55
2018-05-26T11:11:44.694Z,36.38
2018-05-26T11:12:44.751Z,36.12
2018-05-26T11:13:44.808Z,35.65
2018-05-26T11:14:44.859Z,35.68
2018-05-26T11:15:44.914Z,36.27
2018-05-26T11:16:44.969Z,36.72
2018-05-26T11:17:45.225Z,35.94
2018-05-26T11:18:45.080Z,36.31
2018-05-26T11:19:45.133Z,36.62
2018-05-26T11:20:45.190Z,35.52
2018-05-26T11:21:45.245Z,35.58
2018-05-26T11:22:45.306Z,35.89
2018-05-26T11:23:45.358Z,36.16
2018-05-26T11:24:45.477Z,36.22
2018-05-26T11:25:45.466Z,36.16
2018-05-26T11:26:45.522Z,36.16
2018-05-26T11:27:45.575Z,36.46
2018-05-26T11:28:45.633Z,37.27
2018-05-26T11:29:45.699Z,36.73
2018-05-26T11:30:45.778Z,36.88
2018-05-26T11:31:45.799Z,37.18
2018-05-26T11:32:45.858Z,35.93
2018-05-26T11:33:45.910Z,36.50
2018-05-26T11:34:45.968Z,36.64
2018-05-26T11:35:46.026Z,37.22
2018-05-26T11:36:46.079Z,35.00
2018-05-26T11:37:46.134Z,34.73
2018-05-26T11:38:46.191Z,35.45
2018-05-26T11:39:46.244Z,36.37
2018-05-26T11:40:46.300Z,36.05
2018-05-26T11:41:46.357Z,35.80
2018-05-26T11:42:46.419Z,35.43
2018-05-26T11:43:46.471Z,35.06
2018-05-26T11:44:46.522Z,35.29
2018-05-26T11:45:46.579Z,35.66
2018-05-26T11:46:46.635Z,35.75
2018-05-26T11:47:46.687Z,35.09
2018-05-26T11:48:46.741Z,35.65
2018-05-26T11:49:46.797Z,35.90
2018-05-26T11:50:46.850Z,35.52
2018-05-26T11:51:46.904Z,35.29
2018-05-26T11:52:46.963Z,35.56
2018-05-26T11:53:47.013Z,36.28
2018-05-26T11:54:47.065Z,36.12
2018-05-26T11:55:47.119Z,36.59
2018-05-26T11:56:47.172Z,36.46
2018-05-26T11:57:47.226Z,36.49
2018-05-26T11:58:47.280Z,37.25
2018-05-26T11:59:47.336Z,37.89
2018-05-26T12:00:47.392Z,38.03
2018-05-26T12:01:47.475Z,37.82
2018-05-26T12:02:47.498Z,38.11
2018-05-26T12:03:47.548Z,38.47
2018-05-26T12:04:47.602Z,38.44
2018-05-26T12:05:47.657Z,38.75
2018-05-26T12:06:47.711Z,39.25
2018-05-26T12:07:47.766Z,37.84
2018-05-26T12:08:47.820Z,37.47
2018-05-26T12:09:47.877Z,37.31
2018-05-26T12:10:47.943Z,37.91
2018-05-26T12:11:47.986Z,38.49
2018-05-26T12:12:48.047Z,37.02
2018-05-26T12:13:48.097Z,37.50
2018-05-26T12:14:48.152Z,37.67
2018-05-26T12:15:48.207Z,38.28
2018-05-26T12:16:48.263Z,39.47
2018-05-26T12:17:48.318Z,38.93
2018-05-26T12:18:48.375Z,39.06
2018-05-26T12:19:48.428Z,39.57
2018-05-26T12:20:48.484Z,38.41
2018-05-26T12:21:48.541Z,38.57
2018-05-26T12:22:48.597Z,38.07
2018-05-26T12:23:48.652Z,38.11
2018-05-26T12:24:48.709Z,37.39
2018-05-26T12:25:48.764Z,38.52
2018-05-26T12:26:48.865Z,39.29
2018-05-26T12:27:48.878Z,38.93
2018-05-26T12:28:48.930Z,38.03
2018-05-26T12:29:48.988Z,37.91
2018-05-26T12:30:49.043Z,37.94
2018-05-26T12:31:49.097Z,38.09
2018-05-26T12:32:49.153Z,38.31
2018-05-26T12:33:49.208Z,38.12
2018-05-26T12:34:49.264Z,38.20
2018-05-26T12:35:49.317Z,37.59
2018-05-26T12:36:49.373Z,37.84
2018-05-26T12:37:49.427Z,37.94
2018-05-26T12:38:49.483Z,37.97
2018-05-26T12:39:49.534Z,38.20
2018-05-26T12:40:49.590Z,38.47
2018-05-26T12:41:49.644Z,37.72
2018-05-26T12:42:49.701Z,37.51
2018-05-26T12:43:49.752Z,37.06
2018-05-26T12:44:49.811Z,36.66
2018-05-26T12:45:49.860Z,36.31
2018-05-26T12:46:49.913Z,35.85
2018-05-26T12:47:49.965Z,35.09
2018-05-26T12:48:50.020Z,35.16
2018-05-26T12:49:50.396Z,35.11
2018-05-26T12:50:50.326Z,35.37
2018-05-26T12:51:50.177Z,35.82
2018-05-26T12:52:50.229Z,36.05
2018-05-26T12:53:50.281Z,36.32
2018-05-26T12:54:50.335Z,36.32